createdAt,value
2022-09-10T00:04:35.991Z,100813.78
2022-09-10T00:09:35.702Z,100779.94
2022-09-10T00:14:34.015Z,100822.03
2022-09-10T00:19:32.662Z,100788.59
2022-09-10T00:24:31.352Z,100792.09
2022-09-10T00:29:28.856Z,100782.94
2022-09-10T00:34:28.046Z,100794.91
2022-09-10T00:39:27.020Z,100777.81
2022-09-10T00:44:40.816Z,100794.06
2022-09-10T00:49:43.442Z,100772.41
2022-09-10T00:54:42.657Z,100776.03
2022-09-10T00:59:45.507Z,100773.31
2022-09-10T01:04:44.162Z,100766.66
2022-09-10T01:09:42.801Z,100772.28
2022-09-10T01:15:06.512Z,100787.13
2022-09-10T01:20:33.669Z,100765.69
2022-09-10T01:25:46.692Z,100790.25
2022-09-10T01:30:51.879Z,100769.28
2022-09-10T01:35:57.066Z,100752.22
2022-09-10T01:40:56.657Z,100754.13
2022-09-10T01:46:20.130Z,100767.50
2022-09-10T01:51:40.278Z,100783.72
2022-09-10T01:56:51.375Z,100788.59
2022-09-10T02:02:06.466Z,100768.97
2022-09-10T02:07:07.128Z,100766.63
2022-09-10T02:12:05.298Z,100780.25
2022-09-10T02:17:36.061Z,100745.97
2022-09-10T02:22:38.646Z,100764.66
2022-09-10T02:27:38.473Z,100750.03
2022-09-10T02:32:37.364Z,100738.31
2022-09-10T02:37:36.472Z,100777.09
2022-09-10T02:42:35.651Z,100762.34
2022-09-10T02:47:34.165Z,100756.38
2022-09-10T02:52:34.092Z,100766.97
2022-09-10T02:57:36.860Z,100740.72
2022-09-10T03:02:36.987Z,100749.31
2022-09-10T03:07:37.747Z,100754.25
2022-09-10T03:12:39.322Z,100759.91
2022-09-10T03:17:38.253Z,100759.31
2022-09-10T03:22:35.942Z,100779.53
2022-09-10T03:27:33.979Z,100767.91
2022-09-10T03:32:32.764Z,100753.91
2022-09-10T03:37:31.565Z,100770.19
2022-09-10T03:42:29.108Z,100758.38
2022-09-10T03:47:27.721Z,100744.84
2022-09-10T03:52:26.714Z,100781.44
2022-09-10T03:57:25.537Z,100766.47
2022-09-10T04:02:24.779Z,100781.88
2022-09-10T04:07:23.105Z,100764.16
2022-09-10T04:12:28.008Z,100769.78
2022-09-10T04:17:28.847Z,100761.50
2022-09-10T04:22:28.435Z,100765.16
2022-09-10T04:27:35.895Z,100782.97
2022-09-10T04:32:37.067Z,100766.41
2022-09-10T04:37:39.631Z,100769.91
2022-09-10T04:42:38.898Z,100754.25
2022-09-10T04:47:40.387Z,100730.34
2022-09-10T04:52:39.820Z,100764.72
2022-09-10T04:57:40.060Z,100761.00
2022-09-10T05:02:39.672Z,100743.31
2022-09-10T05:07:40.983Z,100773.16
2022-09-10T05:12:39.769Z,100760.59
2022-09-10T05:17:38.780Z,100755.94
2022-09-10T05:22:40.596Z,100755.75
2022-09-10T05:27:44.568Z,100745.13
2022-09-10T05:32:47.416Z,100768.00
2022-09-10T05:37:46.421Z,100736.00
2022-09-10T05:42:45.182Z,100754.41
2022-09-10T05:47:44.263Z,100766.44
2022-09-10T05:52:47.053Z,100766.25
2022-09-10T05:57:45.828Z,100735.28
2022-09-10T06:02:48.163Z,100768.53
2022-09-10T06:08:09.207Z,100720.91
2022-09-10T06:13:13.272Z,100744.88
2022-09-10T06:18:11.958Z,100758.22
2022-09-10T06:23:10.281Z,100748.06
2022-09-10T06:28:09.793Z,100738.72
2022-09-10T06:33:09.221Z,100744.34
2022-09-10T06:38:07.394Z,100775.09
2022-09-10T06:43:06.327Z,100782.38
2022-09-10T06:48:47.848Z,100762.09
2022-09-10T06:53:50.918Z,100775.75
2022-09-10T06:58:53.167Z,100762.66
2022-09-10T07:03:57.749Z,100754.72
2022-09-10T07:09:00.655Z,100756.34
2022-09-10T07:14:04.232Z,100757.44
2022-09-10T07:19:06.459Z,100756.63
2022-09-10T07:24:14.914Z,100761.47
2022-09-10T07:29:31.458Z,100748.91
2022-09-10T07:34:31.552Z,100772.19
2022-09-10T07:39:32.154Z,100762.03
2022-09-10T07:44:30.978Z,100763.34
2022-09-10T07:49:34.142Z,100760.69
2022-09-10T07:54:34.512Z,100786.56
2022-09-10T07:59:33.454Z,100761.91
2022-09-10T08:04:37.734Z,100770.69
2022-09-10T08:09:40.313Z,100774.31
2022-09-10T08:14:42.507Z,100767.59
2022-09-10T08:19:41.692Z,100762.41
2022-09-10T08:24:41.755Z,100778.16
2022-09-10T08:29:40.179Z,100772.63
2022-09-10T08:34:41.126Z,100745.09
2022-09-10T08:39:41.793Z,100752.00
2022-09-10T08:44:50.693Z,100753.72
2022-09-10T08:49:54.467Z,100746.25
2022-09-10T08:54:58.857Z,100760.63
2022-09-10T08:59:58.566Z,100712.47
2022-09-10T09:05:05.553Z,100721.88
2022-09-10T09:10:18.298Z,100750.47
2022-09-10T09:15:38.920Z,100734.50
2022-09-10T09:20:49.029Z,100713.88
2022-09-10T09:25:51.607Z,100691.75
2022-09-10T09:30:51.211Z,100694.69
2022-09-10T09:36:04.516Z,100676.66
2022-09-10T09:41:18.982Z,100650.75
2022-09-10T09:46:19.416Z,100668.50
2022-09-10T09:51:24.320Z,100665.78
2022-09-10T09:56:31.714Z,100650.38
2022-09-10T10:01:31.131Z,100641.31
2022-09-10T10:06:32.826Z,100662.13
2022-09-10T10:11:51.073Z,100651.56
2022-09-10T10:16:52.855Z,100654.19
2022-09-10T10:21:54.605Z,100642.50
2022-09-10T10:26:52.511Z,100671.03
2022-09-10T10:31:51.245Z,100627.25
2022-09-10T10:37:09.166Z,100657.19
2022-09-10T10:42:14.134Z,100655.75
2022-09-10T10:47:21.670Z,100642.38
2022-09-10T10:52:26.939Z,100637.81
2022-09-10T10:57:52.063Z,100650.19
2022-09-10T11:02:57.703Z,100646.84
2022-09-10T11:07:57.084Z,100636.69
2022-09-10T11:13:06.331Z,100617.00
2022-09-10T11:18:17.463Z,100603.84
2022-09-10T11:23:36.481Z,100634.91
2022-09-10T11:28:41.500Z,100602.25
2022-09-10T11:33:58.465Z,100597.31
2022-09-10T11:39:09.405Z,100606.97
2022-09-10T11:44:19.228Z,100613.66
2022-09-10T11:49:34.476Z,100599.84
2022-09-10T11:54:35.577Z,100564.16
2022-09-10T12:00:16.144Z,100598.28
2022-09-10T12:05:56.401Z,100568.59
2022-09-10T12:11:10.198Z,100577.97
2022-09-10T12:16:39.524Z,100571.75
2022-09-10T12:21:48.349Z,100542.06
2022-09-10T12:26:46.441Z,100542.06
2022-09-10T12:32:09.633Z,100555.53
2022-09-10T12:37:23.079Z,100522.19
2022-09-10T12:42:28.930Z,100518.25
2022-09-10T12:47:50.689Z,100513.66
2022-09-10T12:52:55.736Z,100516.66
2022-09-10T12:58:13.426Z,100513.00
2022-09-10T13:03:17.987Z,100496.53
2022-09-10T13:08:16.602Z,100503.00
2022-09-10T13:13:29.850Z,100486.63
2022-09-10T13:18:32.740Z,100479.44
2022-09-10T13:23:45.260Z,100483.53
2022-09-10T13:28:43.499Z,100482.22
2022-09-10T13:33:44.320Z,100469.03
2022-09-10T13:38:45.723Z,100475.22
2022-09-10T13:44:13.111Z,100462.25
2022-09-10T13:49:26.575Z,100443.75
2022-09-10T13:54:36.278Z,100442.44
2022-09-10T13:59:35.815Z,100433.81
2022-09-10T14:04:36.073Z,100437.13
2022-09-10T14:09:35.017Z,100456.94
2022-09-10T14:14:37.561Z,100426.09
2022-09-10T14:19:46.509Z,100419.03
2022-09-10T14:24:46.529Z,100451.25
2022-09-10T14:29:47.083Z,100438.56
2022-09-10T14:34:47.502Z,100439.84
2022-09-10T14:39:46.068Z,100423.84
2022-09-10T14:44:48.958Z,100433.53
2022-09-10T14:49:47.666Z,100436.56
2022-09-10T14:54:46.294Z,100439.56
2022-09-10T14:59:46.623Z,100428.91
2022-09-10T15:04:45.465Z,100424.16
2022-09-10T15:09:44.681Z,100425.75
2022-09-10T15:14:43.343Z,100421.28
2022-09-10T15:19:42.338Z,100424.34
2022-09-10T15:25:05.689Z,100435.72
2022-09-10T15:30:01.205Z,100454.41
2022-09-10T15:34:59.222Z,100431.63
2022-09-10T15:39:58.136Z,100455.53
2022-09-10T15:44:56.819Z,100426.09
2022-09-10T15:49:55.795Z,100453.38
2022-09-10T15:54:54.882Z,100441.31
2022-09-10T15:59:54.784Z,100442.03
2022-09-10T16:04:54.233Z,100424.84
2022-09-10T16:09:52.038Z,100417.41
2022-09-10T16:14:54.410Z,100437.31
2022-09-10T16:19:55.022Z,100456.03
2022-09-10T16:24:52.855Z,100454.78
2022-09-10T16:29:50.792Z,100450.47
2022-09-10T16:34:49.091Z,100441.78
2022-09-10T16:39:47.990Z,100474.34
2022-09-10T16:44:46.751Z,100484.53
2022-09-10T16:49:45.935Z,100484.72
2022-09-10T16:54:46.458Z,100501.38
2022-09-10T16:59:47.026Z,100519.22
2022-09-10T17:04:48.889Z,100533.69
2022-09-10T17:09:47.116Z,100557.94
2022-09-10T17:14:48.419Z,100563.63
2022-09-10T17:19:46.830Z,100582.88
2022-09-10T17:24:49.440Z,100571.81
2022-09-10T17:29:49.913Z,100625.88
2022-09-10T17:34:51.664Z,100651.94
2022-09-10T17:39:52.315Z,100646.81
2022-09-10T17:44:50.362Z,100631.66
2022-09-10T17:49:53.103Z,100642.59
2022-09-10T17:54:54.994Z,100666.63
2022-09-10T17:59:55.642Z,100655.97
2022-09-10T18:05:00.976Z,100682.69
2022-09-10T18:09:58.596Z,100677.31
2022-09-10T18:14:57.562Z,100688.22
2022-09-10T18:19:56.100Z,100640.28
2022-09-10T18:24:54.661Z,100683.22
2022-09-10T18:29:53.799Z,100652.09
2022-09-10T18:34:51.464Z,100675.84
2022-09-10T18:39:50.869Z,100694.75
2022-09-10T18:44:49.260Z,100655.72
2022-09-10T18:49:48.009Z,100687.94
2022-09-10T18:54:46.803Z,100701.94
2022-09-10T18:59:46.323Z,100690.91
2022-09-10T19:05:10.353Z,100654.88
2022-09-10T19:10:09.114Z,100691.91
2022-09-10T19:15:11.642Z,100680.44
2022-09-10T19:20:11.550Z,100675.25
2022-09-10T19:25:09.874Z,100670.63
2022-09-10T19:30:10.026Z,100657.31
2022-09-10T19:35:11.558Z,100675.34
2022-09-10T19:40:15.546Z,100680.75
2022-09-10T19:45:16.564Z,100686.03
2022-09-10T19:50:16.874Z,100658.06
2022-09-10T19:55:18.261Z,100671.34
2022-09-10T20:00:43.060Z,100695.16
2022-09-10T20:05:39.696Z,100679.47
2022-09-10T20:10:38.461Z,100677.19
2022-09-10T20:15:42.351Z,100653.47
2022-09-10T20:20:55.669Z,100656.75
2022-09-10T20:25:55.188Z,100646.91
2022-09-10T20:30:55.792Z,100677.50
2022-09-10T20:35:58.355Z,100663.81
2022-09-10T20:40:56.819Z,100683.19
2022-09-10T20:46:02.978Z,100684.19
2022-09-10T20:51:01.572Z,100698.38
2022-09-10T20:56:05.832Z,100697.97
2022-09-10T21:01:19.312Z,100696.59
2022-09-10T21:06:19.748Z,100698.22
2022-09-10T21:11:20.225Z,100702.94
2022-09-10T21:16:22.369Z,100702.38
2022-09-10T21:21:22.899Z,100668.03
2022-09-10T21:26:26.223Z,100678.09
2022-09-10T21:31:30.401Z,100675.91
2022-09-10T21:36:29.260Z,100681.88
2022-09-10T21:41:36.792Z,100702.50
2022-09-10T21:46:36.620Z,100683.09
2022-09-10T21:51:38.905Z,100679.47
2022-09-10T21:56:43.032Z,100690.50
2022-09-10T22:01:44.829Z,100669.03
2022-09-10T22:06:44.569Z,100678.56
2022-09-10T22:11:46.999Z,100698.97
2022-09-10T22:16:46.149Z,100693.09
2022-09-10T22:21:47.533Z,100695.25
2022-09-10T22:26:47.458Z,100702.91
2022-09-10T22:31:47.440Z,100711.72
2022-09-10T22:36:46.475Z,100729.63
2022-09-10T22:41:48.849Z,100705.59
2022-09-10T22:46:47.520Z,100691.28
2022-09-10T22:51:46.717Z,100690.00
2022-09-10T22:56:45.875Z,100687.72
2022-09-10T23:01:47.682Z,100697.00
2022-09-10T23:06:50.240Z,100696.91
2022-09-10T23:11:49.712Z,100673.81
2022-09-10T23:16:49.726Z,100679.22
2022-09-10T23:21:51.255Z,100674.53
2022-09-10T23:26:53.731Z,100682.91
2022-09-10T23:31:55.453Z,100687.34
2022-09-10T23:36:58.534Z,100682.91
2022-09-10T23:41:58.483Z,100661.34
2022-09-10T23:46:57.632Z,100663.59
2022-09-10T23:51:56.541Z,100667.47
2022-09-10T23:56:54.452Z,100631.19
